createdAt,value
2022-08-05T00:04:25.275Z,1018.176494525942
2022-08-05T00:14:11.914Z,1017.9469337038709
2022-08-05T00:22:47.053Z,1017.6552999668099
2022-08-05T00:30:57.393Z,1017.4394671814193
2022-08-05T00:41:46.914Z,1017.4122459202587
2022-08-05T00:50:41.960Z,1017.4121281234594
2022-08-05T01:00:05.896Z,1016.9843958259671
2022-08-05T01:09:04.796Z,1016.9790389672864
2022-08-05T01:17:53.577Z,1017.1002762730241
2022-08-05T01:26:28.053Z,1015.5729796578108
2022-08-05T01:34:42.908Z,1015.9270930294225
2022-08-05T01:43:21.953Z,1016.3862997369007
2022-08-05T01:51:37.678Z,1016.6887273647714
2022-08-05T02:01:44.218Z,1016.7659751167002
2022-08-05T02:09:48.877Z,1016.8841654209963
2022-08-05T02:18:29.137Z,1017.1621797637874
2022-08-05T02:26:34.120Z,1017.1748660996383
2022-08-05T02:35:09.738Z,1017.1771299235376
2022-08-05T02:43:22.538Z,1017.124065584457
2022-08-05T02:52:03.297Z,1016.9338713424503
2022-08-05T03:00:40.495Z,1016.8039884173157
2022-08-05T03:10:25.118Z,1016.8607715300245
2022-08-05T03:15:17.845Z,1016.9325196361053
2022-08-05T03:23:23.993Z,1017.1282235273161
2022-08-05T03:32:58.868Z,1016.9656681603857
2022-08-05T03:41:46.932Z,1016.8442696466038
2022-08-05T03:50:13.787Z,1017.038116095506
2022-08-05T04:02:38.013Z,1017.13572954117
2022-08-05T04:11:03.368Z,1017.2283128335391
2022-08-05T04:19:31.238Z,1017.3632382658924
2022-08-05T04:28:37.582Z,1017.5241180802694
2022-08-05T04:38:39.383Z,1017.5195884603297
2022-08-05T04:46:34.172Z,1017.3512665657836
2022-08-05T04:55:05.377Z,1017.1082927879056
2022-08-05T05:04:51.587Z,1017.2050025557444
2022-08-05T05:13:13.539Z,1017.6131436585451
2022-08-05T05:21:35.400Z,1017.6725109106724
2022-08-05T05:30:58.579Z,1017.6064503069624
2022-08-05T05:33:59.059Z,1017.5108711944054
2022-08-05T05:42:16.166Z,1016.9381395547728
2022-08-05T05:51:15.330Z,1017.5256833918487
2022-08-05T06:00:13.375Z,1017.5426129964451
2022-08-05T06:08:31.745Z,1017.4300530745975
2022-08-05T06:17:52.547Z,1017.5365984806043
2022-08-05T06:27:01.184Z,1017.5582700339816
2022-08-05T06:38:35.696Z,1017.8972303250666
2022-08-05T06:47:30.214Z,1017.5734266457248
2022-08-05T06:57:57.068Z,1017.691848048637
2022-08-05T07:06:05.535Z,1017.8310044815345
2022-08-05T07:14:56.231Z,1017.9534277519775
2022-08-05T07:27:14.416Z,1018.0467597369977
2022-08-05T07:37:06.909Z,1018.1969142333661
2022-08-05T07:47:15.638Z,1018.1916236929894
2022-08-05T07:58:54.549Z,1018.0332836396286
2022-08-05T08:07:29.114Z,1018.0932508521222
2022-08-05T08:16:57.655Z,1018.1954973176355
2022-08-05T08:27:17.906Z,1018.0901956931586
2022-08-05T08:46:39.805Z,1018.3813985279717
2022-08-05T08:58:19.198Z,1018.4182685114247
2022-08-05T09:07:19.279Z,1018.4584239923959
2022-08-05T09:16:41.367Z,1018.4800762970201
2022-08-05T09:28:03.420Z,1018.43209184735
2022-08-05T09:37:18.478Z,1018.3730522707549
2022-08-05T09:47:21.110Z,1018.3124163379757
2022-08-05T09:55:55.752Z,1018.5414133358686
2022-08-05T10:04:55.427Z,1018.5373150012907
2022-08-05T10:15:16.372Z,1018.599126849193
2022-08-05T10:24:49.813Z,1018.6819822633413
2022-08-05T10:36:30.565Z,1018.7368878179581
2022-08-05T10:45:47.903Z,1018.7262192205088
2022-08-05T10:55:20.163Z,1018.9284004820225
2022-08-05T11:04:55.728Z,1019.0855051466466
2022-08-05T11:13:25.835Z,1019.2073711933401
2022-08-05T11:25:16.370Z,1019.302816779094
2022-08-05T11:33:48.356Z,1019.3223438864798
2022-08-05T11:45:23.585Z,1019.3758933591713
2022-08-05T11:54:58.101Z,1019.5135545141649
2022-08-05T12:03:11.956Z,1019.609297025412
2022-08-05T12:12:12.858Z,1019.723425272266
2022-08-05T12:21:53.420Z,1019.7982390753115
2022-08-05T12:29:53.325Z,1019.6918069181708
2022-08-05T12:38:07.122Z,1019.6999890479105
2022-08-05T12:46:12.440Z,1019.7709207672451
2022-08-05T12:56:00.660Z,1019.7069531012253
2022-08-05T13:07:27.006Z,1019.6824477023758
2022-08-05T13:17:04.340Z,1019.6716258883642
2022-08-05T13:26:27.293Z,1019.7129701570209
2022-08-05T13:35:42.584Z,1019.6479319005855
2022-08-05T13:45:20.822Z,1019.6492546410045
2022-08-05T13:54:39.745Z,1019.7967618522515
2022-08-05T14:03:36.580Z,1020.0140009833963
2022-08-05T14:13:23.519Z,1020.1576313831168
2022-08-05T14:22:58.731Z,1020.2944117405325
2022-08-05T14:32:35.495Z,1020.2417813943252
2022-08-05T14:41:13.617Z,1020.3946552776871
2022-08-05T14:50:50.858Z,1020.6294040934132
2022-08-05T14:59:38.300Z,1020.6584267867878
2022-08-05T15:10:18.820Z,1020.8861699269711
2022-08-05T15:18:58.759Z,1020.9773309717358
2022-08-05T15:27:20.141Z,1021.1737194689091
2022-08-05T15:35:44.979Z,1021.2006010137361
2022-08-05T15:47:24.166Z,1021.3612689045228
2022-08-05T15:56:35.515Z,1021.4239225407795
2022-08-05T16:05:32.007Z,1021.736200273816
2022-08-05T16:13:34.525Z,1021.6457099995679
2022-08-05T16:21:17.047Z,1021.6007543300901
2022-08-05T16:30:29.399Z,1021.6820127758067
2022-08-05T16:40:05.425Z,1022.0095612145949
2022-08-05T16:47:24.887Z,1022.088747901236
2022-08-05T16:55:27.741Z,1022.0744737519382
2022-08-05T17:04:04.561Z,1022.2735269483608
2022-08-05T17:12:50.764Z,1022.3627653267882
2022-08-05T17:20:42.025Z,1022.3591685552111
2022-08-05T17:28:50.291Z,1022.4248374884992
2022-08-05T17:38:05.204Z,1022.5447732857874
2022-08-05T17:46:46.136Z,1022.6379217254243
2022-08-05T17:54:36.528Z,1022.7834322709165
2022-08-05T18:02:36.918Z,1022.8443220462437
2022-08-05T18:10:47.516Z,1022.9108604690518
2022-08-05T18:18:47.941Z,1023.0011605303521
2022-08-05T18:27:01.244Z,1023.1320974094601
2022-08-05T18:34:06.652Z,1023.2016632813774
2022-08-05T18:44:13.612Z,1023.3542973750559
2022-08-05T18:53:19.363Z,1023.403125495906
2022-08-05T19:01:33.060Z,1023.5744529325551
2022-08-05T19:11:05.015Z,1023.6550875936426
2022-08-05T19:20:33.575Z,1023.8291455327324
2022-08-05T19:29:06.958Z,1023.9636771379762
2022-08-05T19:37:08.438Z,1024.0377063361748
2022-08-05T19:46:52.921Z,1024.2294773722044
2022-08-05T19:56:12.245Z,1024.3180380802223
2022-08-05T20:05:05.067Z,1024.4612273271805
2022-08-05T20:13:17.707Z,1024.4662385557008
2022-08-05T20:21:18.104Z,1024.6187863465268
2022-08-05T20:29:04.762Z,1024.6934481004828
2022-08-05T20:37:05.871Z,1024.7933620964411
2022-08-05T20:45:47.793Z,1024.9078329557606
2022-08-05T20:53:57.574Z,1024.981646535787
2022-08-05T21:03:16.572Z,1025.0557944486684
2022-08-05T21:12:07.997Z,1025.2526990655979
2022-08-05T21:20:33.730Z,1025.2799483114695
2022-08-05T21:28:47.596Z,1025.3250819365633
2022-08-05T21:36:52.772Z,1025.4174451471038
2022-08-05T21:45:01.917Z,1025.4517054684
2022-08-05T21:55:42.715Z,1025.5179726223107
2022-08-05T22:04:55.470Z,1025.5337259785397
2022-08-05T22:15:00.905Z,1025.5417798310075
2022-08-05T22:24:39.813Z,1025.569099756836
2022-08-05T22:33:55.274Z,1025.5903978912602
2022-08-05T22:42:33.722Z,1025.7202782761187
2022-08-05T22:51:06.903Z,1025.6371211631927
2022-08-05T23:00:09.129Z,1025.720976392674
2022-08-05T23:08:35.332Z,1025.849319422624
2022-08-05T23:16:54.715Z,1025.899528171202
2022-08-05T23:24:37.629Z,1026.0004668826448
2022-08-05T23:32:47.814Z,1026.0152547932196
2022-08-05T23:41:14.492Z,1025.997359178063
2022-08-05T23:49:34.031Z,1026.1530759368247
2022-08-05T23:57:15.265Z,1026.2455406851866
